sensor_id;sensor_type;location;lat;lon;timestamp;temperature;humidity
6178;DHT22;3122;48.208;11.174;2023-03-02T00:01:08;0.40;1.00
6178;DHT22;3122;48.208;11.174;2023-03-02T00:06:10;0.40;1.00
6178;DHT22;3122;48.208;11.174;2023-03-02T00:11:11;0.30;1.00
6178;DHT22;3122;48.208;11.174;2023-03-02T00:16:12;0.30;1.00
6178;DHT22;3122;48.208;11.174;2023-03-02T00:21:12;0.30;1.00
6178;DHT22;3122;48.208;11.174;2023-03-02T00:26:13;0.20;1.00
6178;DHT22;3122;48.208;11.174;2023-03-02T00:31:13;0.30;1.00
6178;DHT22;3122;48.208;11.174;2023-03-02T00:36:16;0.20;1.00
6178;DHT22;3122;48.208;11.174;2023-03-02T00:41:17;0.10;1.00
6178;DHT22;3122;48.208;11.174;2023-03-02T00:46:22;0.10;1.00
6178;DHT22;3122;48.208;11.174;2023-03-02T00:51:23;0.00;1.00
6178;DHT22;3122;48.208;11.174;2023-03-02T00:56:24;0.10;1.00
6178;DHT22;3122;48.208;11.174;2023-03-02T01:01:25;-0.10;1.00
6178;DHT22;3122;48.208;11.174;2023-03-02T01:06:25;-0.10;1.00
6178;DHT22;3122;48.208;11.174;2023-03-02T01:11:26;-0.10;1.00
6178;DHT22;3122;48.208;11.174;2023-03-02T01:16:26;-0.20;1.00
6178;DHT22;3122;48.208;11.174;2023-03-02T01:21:27;-0.30;1.00
6178;DHT22;3122;48.208;11.174;2023-03-02T01:26:27;-0.30;1.00
6178;DHT22;3122;48.208;11.174;2023-03-02T01:31:28;-0.30;1.00
6178;DHT22;3122;48.208;11.174;2023-03-02T01:36:29;-0.30;1.00
6178;DHT22;3122;48.208;11.174;2023-03-02T01:41:30;-0.40;1.00
6178;DHT22;3122;48.208;11.174;2023-03-02T01:46:31;-0.40;1.00
6178;DHT22;3122;48.208;11.174;2023-03-02T01:51:39;-0.40;1.00
6178;DHT22;3122;48.208;11.174;2023-03-02T01:56:43;-0.40;1.00
6178;DHT22;3122;48.208;11.174;2023-03-02T02:01:52;-0.30;1.00
6178;DHT22;3122;48.208;11.174;2023-03-02T02:06:58;-0.40;1.00
6178;DHT22;3122;48.208;11.174;2023-03-02T02:12:00;-0.40;1.00
6178;DHT22;3122;48.208;11.174;2023-03-02T02:17:01;-0.40;1.00
6178;DHT22;3122;48.208;11.174;2023-03-02T02:22:01;-0.50;1.00
6178;DHT22;3122;48.208;11.174;2023-03-02T02:27:02;-0.40;1.00
6178;DHT22;3122;48.208;11.174;2023-03-02T02:32:14;-0.40;1.00
6178;DHT22;3122;48.208;11.174;2023-03-02T02:37:53;-0.40;1.00
6178;DHT22;3122;48.208;11.174;2023-03-02T02:42:48;-0.40;1.00
6178;DHT22;3122;48.208;11.174;2023-03-02T02:47:50;-0.40;1.00
6178;DHT22;3122;48.208;11.174;2023-03-02T02:52:58;-0.50;1.00
6178;DHT22;3122;48.208;11.174;2023-03-02T02:58:02;-0.50;1.00
6178;DHT22;3122;48.208;11.174;2023-03-02T03:03:24;-0.60;1.00
6178;DHT22;3122;48.208;11.174;2023-03-02T03:08:48;-0.60;1.00
6178;DHT22;3122;48.208;11.174;2023-03-02T03:13:57;-0.60;1.00
6178;DHT22;3122;48.208;11.174;2023-03-02T03:24:18;-0.50;1.00
6178;DHT22;3122;48.208;11.174;2023-03-02T03:29:19;-0.60;1.00
6178;DHT22;3122;48.208;11.174;2023-03-02T03:34:24;-0.60;1.00
6178;DHT22;3122;48.208;11.174;2023-03-02T03:39:24;-0.50;1.00
6178;DHT22;3122;48.208;11.174;2023-03-02T03:44:25;-0.40;1.00
6178;DHT22;3122;48.208;11.174;2023-03-02T03:49:25;-0.40;1.00
6178;DHT22;3122;48.208;11.174;2023-03-02T03:54:26;-0.40;1.00
6178;DHT22;3122;48.208;11.174;2023-03-02T03:59:27;-0.30;1.00
6178;DHT22;3122;48.208;11.174;2023-03-02T04:04:33;-0.30;1.00
6178;DHT22;3122;48.208;11.174;2023-03-02T04:09:33;-0.40;1.00
6178;DHT22;3122;48.208;11.174;2023-03-02T04:14:37;-0.50;1.00
6178;DHT22;3122;48.208;11.174;2023-03-02T04:19:38;-0.60;1.00
6178;DHT22;3122;48.208;11.174;2023-03-02T04:24:38;-0.70;1.00
6178;DHT22;3122;48.208;11.174;2023-03-02T04:29:39;-0.70;1.00
6178;DHT22;3122;48.208;11.174;2023-03-02T04:34:40;-0.60;1.00
6178;DHT22;3122;48.208;11.174;2023-03-02T04:39:40;-0.70;1.00
6178;DHT22;3122;48.208;11.174;2023-03-02T04:44:41;-0.70;1.00
6178;DHT22;3122;48.208;11.174;2023-03-02T04:49:42;-0.60;1.00
6178;DHT22;3122;48.208;11.174;2023-03-02T04:54:42;-0.70;1.00
6178;DHT22;3122;48.208;11.174;2023-03-02T04:59:43;-0.70;1.00
6178;DHT22;3122;48.208;11.174;2023-03-02T05:04:43;-0.60;1.00
6178;DHT22;3122;48.208;11.174;2023-03-02T05:09:44;-0.60;1.00
6178;DHT22;3122;48.208;11.174;2023-03-02T05:14:45;-0.50;1.00
6178;DHT22;3122;48.208;11.174;2023-03-02T05:19:45;-0.60;1.00
6178;DHT22;3122;48.208;11.174;2023-03-02T05:24:46;-0.50;1.00
6178;DHT22;3122;48.208;11.174;2023-03-02T05:29:46;-0.50;1.00
6178;DHT22;3122;48.208;11.174;2023-03-02T05:34:47;-0.50;1.00
6178;DHT22;3122;48.208;11.174;2023-03-02T05:39:47;-0.60;1.00
6178;DHT22;3122;48.208;11.174;2023-03-02T05:44:48;-0.60;1.00
6178;DHT22;3122;48.208;11.174;2023-03-02T05:49:49;-0.60;1.00
6178;DHT22;3122;48.208;11.174;2023-03-02T05:54:49;-0.60;1.00
6178;DHT22;3122;48.208;11.174;2023-03-02T05:59:51;-0.60;1.00
6178;DHT22;3122;48.208;11.174;2023-03-02T06:04:51;-0.60;1.00
6178;DHT22;3122;48.208;11.174;2023-03-02T06:09:52;-0.70;1.00
6178;DHT22;3122;48.208;11.174;2023-03-02T06:14:52;-0.70;1.00
6178;DHT22;3122;48.208;11.174;2023-03-02T06:19:53;-0.80;1.00
6178;DHT22;3122;48.208;11.174;2023-03-02T06:24:54;-0.80;1.00
6178;DHT22;3122;48.208;11.174;2023-03-02T06:29:54;-0.80;1.00
6178;DHT22;3122;48.208;11.174;2023-03-02T06:34:55;-0.70;1.00
6178;DHT22;3122;48.208;11.174;2023-03-02T06:39:56;-0.60;1.00
6178;DHT22;3122;48.208;11.174;2023-03-02T06:44:57;-0.60;1.00
6178;DHT22;3122;48.208;11.174;2023-03-02T06:49:57;-0.60;1.00
6178;DHT22;3122;48.208;11.174;2023-03-02T06:54:58;-0.50;1.00
6178;DHT22;3122;48.208;11.174;2023-03-02T07:00:00;-0.50;1.00
6178;DHT22;3122;48.208;11.174;2023-03-02T07:05:01;-0.50;1.00
6178;DHT22;3122;48.208;11.174;2023-03-02T07:10:03;-0.40;1.00
6178;DHT22;3122;48.208;11.174;2023-03-02T07:15:04;-0.30;1.00
6178;DHT22;3122;48.208;11.174;2023-03-02T07:20:16;-0.20;1.00
6178;DHT22;3122;48.208;11.174;2023-03-02T07:25:17;-0.10;1.00
6178;DHT22;3122;48.208;11.174;2023-03-02T07:30:17;-0.10;1.00
6178;DHT22;3122;48.208;11.174;2023-03-02T07:35:21;0.00;1.00
6178;DHT22;3122;48.208;11.174;2023-03-02T07:40:22;0.10;1.00
6178;DHT22;3122;48.208;11.174;2023-03-02T07:45:22;0.10;1.00
6178;DHT22;3122;48.208;11.174;2023-03-02T07:50:24;0.20;1.00
6178;DHT22;3122;48.208;11.174;2023-03-02T07:55:24;0.30;1.00
6178;DHT22;3122;48.208;11.174;2023-03-02T08:00:25;0.40;1.00
6178;DHT22;3122;48.208;11.174;2023-03-02T08:05:26;0.60;1.00
6178;DHT22;3122;48.208;11.174;2023-03-02T08:10:26;0.70;1.00
6178;DHT22;3122;48.208;11.174;2023-03-02T08:15:27;0.80;1.00
6178;DHT22;3122;48.208;11.174;2023-03-02T08:20:27;0.90;1.00
6178;DHT22;3122;48.208;11.174;2023-03-02T08:25:28;1.00;1.00
6178;DHT22;3122;48.208;11.174;2023-03-02T08:30:29;1.10;1.00
6178;DHT22;3122;48.208;11.174;2023-03-02T08:35:30;1.20;1.00
6178;DHT22;3122;48.208;11.174;2023-03-02T08:40:30;1.30;1.00
6178;DHT22;3122;48.208;11.174;2023-03-02T08:45:33;1.50;1.00
6178;DHT22;3122;48.208;11.174;2023-03-02T08:50:34;1.60;1.00
6178;DHT22;3122;48.208;11.174;2023-03-02T08:55:37;1.60;1.00
6178;DHT22;3122;48.208;11.174;2023-03-02T09:00:38;1.70;1.00
6178;DHT22;3122;48.208;11.174;2023-03-02T09:05:39;2.00;1.00
6178;DHT22;3122;48.208;11.174;2023-03-02T09:10:39;2.10;1.00
6178;DHT22;3122;48.208;11.174;2023-03-02T09:15:40;2.20;1.00
6178;DHT22;3122;48.208;11.174;2023-03-02T09:20:41;2.30;1.00
6178;DHT22;3122;48.208;11.174;2023-03-02T09:25:41;2.50;1.00
6178;DHT22;3122;48.208;11.174;2023-03-02T09:30:51;2.60;1.00
6178;DHT22;3122;48.208;11.174;2023-03-02T09:35:51;2.60;1.00
6178;DHT22;3122;48.208;11.174;2023-03-02T09:41:06;2.60;1.00
6178;DHT22;3122;48.208;11.174;2023-03-02T09:46:22;2.80;1.00
6178;DHT22;3122;48.208;11.174;2023-03-02T09:51:35;3.00;1.00
6178;DHT22;3122;48.208;11.174;2023-03-02T09:56:46;3.10;1.00
6178;DHT22;3122;48.208;11.174;2023-03-02T10:02:22;3.30;1.00
6178;DHT22;3122;48.208;11.174;2023-03-02T10:07:34;3.40;1.00
6178;DHT22;3122;48.208;11.174;2023-03-02T10:28:29;3.90;1.00
6178;DHT22;3122;48.208;11.174;2023-03-02T10:33:32;4.00;1.00
6178;DHT22;3122;48.208;11.174;2023-03-02T10:38:36;4.00;1.00
6178;DHT22;3122;48.208;11.174;2023-03-02T10:43:50;4.20;1.00
6178;DHT22;3122;48.208;11.174;2023-03-02T10:48:56;4.30;1.00
6178;DHT22;3122;48.208;11.174;2023-03-02T10:54:12;4.70;1.00
6178;DHT22;3122;48.208;11.174;2023-03-02T10:59:37;4.70;1.00
6178;DHT22;3122;48.208;11.174;2023-03-02T11:04:38;4.80;1.00
6178;DHT22;3122;48.208;11.174;2023-03-02T11:09:39;4.90;1.00
6178;DHT22;3122;48.208;11.174;2023-03-02T11:14:39;5.10;1.00
6178;DHT22;3122;48.208;11.174;2023-03-02T11:19:41;5.10;1.00
6178;DHT22;3122;48.208;11.174;2023-03-02T11:24:50;5.20;1.00
6178;DHT22;3122;48.208;11.174;2023-03-02T11:30:02;5.30;1.00
6178;DHT22;3122;48.208;11.174;2023-03-02T11:35:20;5.40;1.00
6178;DHT22;3122;48.208;11.174;2023-03-02T11:40:34;5.60;1.00
6178;DHT22;3122;48.208;11.174;2023-03-02T11:45:39;5.70;1.00
6178;DHT22;3122;48.208;11.174;2023-03-02T11:50:57;5.70;1.00
6178;DHT22;3122;48.208;11.174;2023-03-02T11:55:58;5.70;1.00
6178;DHT22;3122;48.208;11.174;2023-03-02T12:00:59;5.80;1.00
6178;DHT22;3122;48.208;11.174;2023-03-02T12:06:01;5.90;1.00
6178;DHT22;3122;48.208;11.174;2023-03-02T12:22:03;6.00;1.00
6178;DHT22;3122;48.208;11.174;2023-03-02T12:32:27;6.30;1.00
6178;DHT22;3122;48.208;11.174;2023-03-02T12:37:48;6.40;1.00
6178;DHT22;3122;48.208;11.174;2023-03-02T12:48:41;6.50;1.00
6178;DHT22;3122;48.208;11.174;2023-03-02T12:53:42;6.60;1.00
6178;DHT22;3122;48.208;11.174;2023-03-02T12:58:49;6.50;1.00
6178;DHT22;3122;48.208;11.174;2023-03-02T13:03:50;6.50;1.00
6178;DHT22;3122;48.208;11.174;2023-03-02T13:08:55;6.70;1.00
6178;DHT22;3122;48.208;11.174;2023-03-02T13:14:00;6.70;1.00
6178;DHT22;3122;48.208;11.174;2023-03-02T13:19:08;6.90;1.00
6178;DHT22;3122;48.208;11.174;2023-03-02T13:24:33;7.00;1.00
6178;DHT22;3122;48.208;11.174;2023-03-02T13:29:35;6.90;1.00
6178;DHT22;3122;48.208;11.174;2023-03-02T13:34:35;7.10;1.00
6178;DHT22;3122;48.208;11.174;2023-03-02T13:39:36;7.10;1.00
6178;DHT22;3122;48.208;11.174;2023-03-02T13:44:37;7.20;1.00
6178;DHT22;3122;48.208;11.174;2023-03-02T13:49:37;7.40;1.00
6178;DHT22;3122;48.208;11.174;2023-03-02T13:54:42;7.80;1.00
6178;DHT22;3122;48.208;11.174;2023-03-02T13:59:44;7.90;1.00
6178;DHT22;3122;48.208;11.174;2023-03-02T14:04:44;7.70;1.00
6178;DHT22;3122;48.208;11.174;2023-03-02T14:09:45;7.60;1.00
6178;DHT22;3122;48.208;11.174;2023-03-02T14:14:46;7.40;1.00
6178;DHT22;3122;48.208;11.174;2023-03-02T14:19:46;7.30;1.00
6178;DHT22;3122;48.208;11.174;2023-03-02T14:24:52;7.30;1.00
6178;DHT22;3122;48.208;11.174;2023-03-02T14:29:52;7.40;1.00
6178;DHT22;3122;48.208;11.174;2023-03-02T14:34:53;7.50;1.00
6178;DHT22;3122;48.208;11.174;2023-03-02T14:39:54;7.50;1.00
6178;DHT22;3122;48.208;11.174;2023-03-02T14:44:54;7.40;1.00
6178;DHT22;3122;48.208;11.174;2023-03-02T14:49:55;7.30;1.00
6178;DHT22;3122;48.208;11.174;2023-03-02T14:54:59;7.20;1.00
6178;DHT22;3122;48.208;11.174;2023-03-02T15:00:01;7.10;1.00
6178;DHT22;3122;48.208;11.174;2023-03-02T15:05:01;6.90;1.00
6178;DHT22;3122;48.208;11.174;2023-03-02T15:10:02;6.90;1.00
6178;DHT22;3122;48.208;11.174;2023-03-02T15:15:03;6.70;1.00
6178;DHT22;3122;48.208;11.174;2023-03-02T15:20:04;6.60;1.00
6178;DHT22;3122;48.208;11.174;2023-03-02T15:25:05;6.50;1.00
6178;DHT22;3122;48.208;11.174;2023-03-02T15:30:06;6.30;1.00
6178;DHT22;3122;48.208;11.174;2023-03-02T15:35:07;6.30;1.00
6178;DHT22;3122;48.208;11.174;2023-03-02T15:40:09;6.20;1.00
6178;DHT22;3122;48.208;11.174;2023-03-02T15:45:10;5.80;1.00
6178;DHT22;3122;48.208;11.174;2023-03-02T15:50:11;5.70;1.00
6178;DHT22;3122;48.208;11.174;2023-03-02T15:55:12;5.60;1.00
6178;DHT22;3122;48.208;11.174;2023-03-02T16:00:15;5.40;1.00
6178;DHT22;3122;48.208;11.174;2023-03-02T16:05:16;5.30;1.00
6178;DHT22;3122;48.208;11.174;2023-03-02T16:10:16;5.30;1.00
6178;DHT22;3122;48.208;11.174;2023-03-02T16:15:18;5.20;1.00
6178;DHT22;3122;48.208;11.174;2023-03-02T16:20:19;5.00;1.00
6178;DHT22;3122;48.208;11.174;2023-03-02T16:25:20;4.80;1.00
6178;DHT22;3122;48.208;11.174;2023-03-02T16:30:20;4.70;1.00
6178;DHT22;3122;48.208;11.174;2023-03-02T16:35:21;4.50;1.00
6178;DHT22;3122;48.208;11.174;2023-03-02T16:40:22;4.40;1.00
6178;DHT22;3122;48.208;11.174;2023-03-02T16:45:23;4.20;1.00
6178;DHT22;3122;48.208;11.174;2023-03-02T16:50:23;4.10;1.00
6178;DHT22;3122;48.208;11.174;2023-03-02T16:55:24;3.90;1.00
6178;DHT22;3122;48.208;11.174;2023-03-02T17:00:25;3.90;1.00
6178;DHT22;3122;48.208;11.174;2023-03-02T17:05:26;3.80;1.00
6178;DHT22;3122;48.208;11.174;2023-03-02T17:10:27;3.70;1.00
6178;DHT22;3122;48.208;11.174;2023-03-02T17:15:28;3.60;1.00
6178;DHT22;3122;48.208;11.174;2023-03-02T17:20:28;3.40;1.00
6178;DHT22;3122;48.208;11.174;2023-03-02T17:25:29;3.30;1.00
6178;DHT22;3122;48.208;11.174;2023-03-02T17:30:30;3.20;1.00
6178;DHT22;3122;48.208;11.174;2023-03-02T17:35:30;3.00;1.00
6178;DHT22;3122;48.208;11.174;2023-03-02T17:40:32;3.00;1.00
6178;DHT22;3122;48.208;11.174;2023-03-02T17:45:33;2.90;1.00
6178;DHT22;3122;48.208;11.174;2023-03-02T17:50:33;2.80;1.00
6178;DHT22;3122;48.208;11.174;2023-03-02T17:55:34;2.70;1.00
6178;DHT22;3122;48.208;11.174;2023-03-02T18:00:34;2.60;1.00
6178;DHT22;3122;48.208;11.174;2023-03-02T18:05:35;2.60;1.00
6178;DHT22;3122;48.208;11.174;2023-03-02T18:10:36;2.40;1.00
6178;DHT22;3122;48.208;11.174;2023-03-02T18:15:36;2.40;1.00
6178;DHT22;3122;48.208;11.174;2023-03-02T18:20:37;2.30;1.00
6178;DHT22;3122;48.208;11.174;2023-03-02T18:25:37;2.20;1.00
6178;DHT22;3122;48.208;11.174;2023-03-02T18:30:38;2.10;1.00
6178;DHT22;3122;48.208;11.174;2023-03-02T18:35:39;2.10;1.00
6178;DHT22;3122;48.208;11.174;2023-03-02T18:40:40;2.00;1.00
6178;DHT22;3122;48.208;11.174;2023-03-02T18:45:40;2.00;1.00
6178;DHT22;3122;48.208;11.174;2023-03-02T18:50:41;1.90;1.00
6178;DHT22;3122;48.208;11.174;2023-03-02T18:55:43;1.80;1.00
6178;DHT22;3122;48.208;11.174;2023-03-02T19:00:44;1.80;1.00
6178;DHT22;3122;48.208;11.174;2023-03-02T19:05:48;1.70;1.00
6178;DHT22;3122;48.208;11.174;2023-03-02T19:10:50;1.50;1.00
6178;DHT22;3122;48.208;11.174;2023-03-02T19:15:52;1.60;1.00
6178;DHT22;3122;48.208;11.174;2023-03-02T19:20:53;1.60;1.00
6178;DHT22;3122;48.208;11.174;2023-03-02T19:25:54;1.60;1.00
6178;DHT22;3122;48.208;11.174;2023-03-02T19:30:55;1.40;1.00
6178;DHT22;3122;48.208;11.174;2023-03-02T19:35:56;1.40;1.00
6178;DHT22;3122;48.208;11.174;2023-03-02T19:40:57;1.40;1.00
6178;DHT22;3122;48.208;11.174;2023-03-02T19:45:58;1.40;1.00
6178;DHT22;3122;48.208;11.174;2023-03-02T19:51:00;1.20;1.00
6178;DHT22;3122;48.208;11.174;2023-03-02T19:56:02;1.10;1.00
6178;DHT22;3122;48.208;11.174;2023-03-02T20:01:03;1.10;1.00
6178;DHT22;3122;48.208;11.174;2023-03-02T20:06:04;1.00;1.00
6178;DHT22;3122;48.208;11.174;2023-03-02T20:11:05;1.00;1.00
6178;DHT22;3122;48.208;11.174;2023-03-02T20:16:06;0.90;1.00
6178;DHT22;3122;48.208;11.174;2023-03-02T20:21:07;0.80;1.00
6178;DHT22;3122;48.208;11.174;2023-03-02T20:26:09;0.90;1.00
6178;DHT22;3122;48.208;11.174;2023-03-02T20:31:10;0.90;1.00
6178;DHT22;3122;48.208;11.174;2023-03-02T20:36:14;0.90;1.00
6178;DHT22;3122;48.208;11.174;2023-03-02T20:41:16;0.80;1.00
6178;DHT22;3122;48.208;11.174;2023-03-02T20:46:25;0.80;1.00
6178;DHT22;3122;48.208;11.174;2023-03-02T20:51:27;0.60;1.00
6178;DHT22;3122;48.208;11.174;2023-03-02T20:56:28;0.70;1.00
6178;DHT22;3122;48.208;11.174;2023-03-02T21:01:29;0.70;1.00
6178;DHT22;3122;48.208;11.174;2023-03-02T21:06:29;0.70;1.00
6178;DHT22;3122;48.208;11.174;2023-03-02T21:11:32;0.60;1.00
6178;DHT22;3122;48.208;11.174;2023-03-02T21:16:37;0.70;1.00
6178;DHT22;3122;48.208;11.174;2023-03-02T21:21:37;0.60;1.00
6178;DHT22;3122;48.208;11.174;2023-03-02T21:26:40;0.60;1.00
6178;DHT22;3122;48.208;11.174;2023-03-02T21:31:42;0.60;1.00
6178;DHT22;3122;48.208;11.174;2023-03-02T21:36:43;0.60;1.00
6178;DHT22;3122;48.208;11.174;2023-03-02T21:41:43;0.60;1.00
6178;DHT22;3122;48.208;11.174;2023-03-02T21:46:45;0.60;1.00
6178;DHT22;3122;48.208;11.174;2023-03-02T21:51:46;0.60;1.00
6178;DHT22;3122;48.208;11.174;2023-03-02T21:56:46;0.60;1.00
6178;DHT22;3122;48.208;11.174;2023-03-02T22:01:47;0.60;1.00
6178;DHT22;3122;48.208;11.174;2023-03-02T22:06:48;0.60;1.00
6178;DHT22;3122;48.208;11.174;2023-03-02T22:11:49;0.60;1.00
6178;DHT22;3122;48.208;11.174;2023-03-02T22:16:50;0.50;1.00
6178;DHT22;3122;48.208;11.174;2023-03-02T22:21:56;0.50;1.00
6178;DHT22;3122;48.208;11.174;2023-03-02T22:32:28;0.50;1.00
6178;DHT22;3122;48.208;11.174;2023-03-02T22:37:32;0.40;1.00
6178;DHT22;3122;48.208;11.174;2023-03-02T22:42:33;0.40;1.00
6178;DHT22;3122;48.208;11.174;2023-03-02T22:47:34;0.30;1.00
6178;DHT22;3122;48.208;11.174;2023-03-02T22:52:37;0.30;1.00
6178;DHT22;3122;48.208;11.174;2023-03-02T22:57:40;0.30;1.00
6178;DHT22;3122;48.208;11.174;2023-03-02T23:02:44;0.20;1.00
6178;DHT22;3122;48.208;11.174;2023-03-02T23:07:44;0.20;1.00
6178;DHT22;3122;48.208;11.174;2023-03-02T23:12:45;0.20;1.00
6178;DHT22;3122;48.208;11.174;2023-03-02T23:17:45;0.10;1.00
6178;DHT22;3122;48.208;11.174;2023-03-02T23:22:46;0.10;1.00
6178;DHT22;3122;48.208;11.174;2023-03-02T23:27:49;0.10;1.00
6178;DHT22;3122;48.208;11.174;2023-03-02T23:32:49;0.10;1.00
6178;DHT22;3122;48.208;11.174;2023-03-02T23:37:50;0.00;1.00
6178;DHT22;3122;48.208;11.174;2023-03-02T23:42:50;0.00;1.00
6178;DHT22;3122;48.208;11.174;2023-03-02T23:47:51;0.00;1.00
6178;DHT22;3122;48.208;11.174;2023-03-02T23:52:52;0.00;1.00
6178;DHT22;3122;48.208;11.174;2023-03-02T23:57:52;0.00;1.00
